Flight Track Log - Related Links

Times and Time Zones

All times are in EDT time to prevent confusion due to time zone crossing. See the EJA396 flight status page for this flight to view local times or setup timezone preferences in your user account.

Time Position Orientation Groundspeed Altitude Reporting Facility
EDT Latitude Longitude Course Direction KTS MPH feet Rate Location/Type
Thu 07:57:45 AM 40.9000 -74.0333 54° Northeast 211 243 2,200  Level New York TRACON
Thu 07:58:45 AM 40.9333 -74.1167 298° West 215 247 4,100 1,471 Climbing New York TRACON
Thu 08:00:20 AM 41.0036 -74.1536 338° Northwest 196 226 6,000 1,123 Climbing Boston Center
Thu 08:01:20 AM 41.0850 -74.1447 North 243 280 7,000 1,400 Climbing Boston Center
Thu 08:02:20 AM 41.1417 -74.1103 25° Northeast 251 289 8,800 2,100 Climbing Boston Center
Thu 08:03:00 AM 41.1936 -73.4452 54° Northeast  Level FlightAware Approximate
Thu 08:03:20 AM 41.1744 -74.0036 68° East 242 278 11,200  Level Boston Center
Thu 08:04:20 AM 41.1989 -73.9022 72° East 297 342 12,400 1,450 Climbing Boston Center
Thu 08:05:20 AM 41.2294 -73.7758 72° East 326 375 14,100 1,750 Climbing Boston Center
Thu 08:06:20 AM 41.2558 -73.6661 72° East 331 381 15,900 1,450 Climbing Boston Center
Thu 08:07:20 AM 41.2886 -73.5286 72° East 340 391 17,000 550 Climbing Boston Center
Thu 08:08:20 AM 41.3167 -73.4183 71° East 345 397 17,000  Level Boston Center
Thu 08:09:20 AM 41.3511 -73.2781 72° East 345 397 17,000  Level Boston Center
Thu 08:10:20 AM 41.3747 -73.1647 74° East 350 403 17,000  Level Boston Center
Thu 08:11:20 AM 41.4047 -73.0239 74° East 355 409 17,000  Level Boston Center
Thu 08:12:32 AM 41.4303 -72.9081 74° East 355 409 17,000  Level Boston Center
Thu 08:13:44 AM 41.4706 -72.7475 71° East 360 414 17,000  Level Boston Center
Thu 08:14:44 AM 41.5061 -72.5953 73° East 360 414 17,000  Level Boston Center
Thu 08:15:44 AM 41.5356 -72.4817 71° East 360 414 17,000  Level Boston Center
Thu 08:16:44 AM 41.5689 -72.3431 72° East 360 414 17,000  Level Boston Center
Thu 08:17:44 AM 41.5936 -72.2403 72° East 360 414 17,000  Level Boston Center
Thu 08:18:44 AM 41.6286 -72.0875 73° East 360 414 17,000  Level Boston Center
Thu 08:19:44 AM 41.6594 -71.9594 72° East 360 414 17,000  Level Boston Center
Thu 08:20:44 AM 41.6903 -71.8342 72° East 360 414 17,000  Level Boston Center
Thu 08:21:44 AM 41.7186 -71.7058 73° East 360 414 17,000 -50 Level Boston Center
Thu 08:22:44 AM 41.7489 -71.5803 72° East 360 414 16,900 -900 Descending Boston Center
Thu 08:23:44 AM 41.7814 -71.4600 70° East 355 409 15,200 -1,450 Descending Boston Center
Thu 08:24:44 AM 41.8075 -71.3483 73° East 337 388 14,000 -1,300 Descending Boston Center
Thu 08:25:44 AM 41.8314 -71.2475 72° East 305 351 12,600 -1,450 Descending Boston Center
Thu 08:26:44 AM 41.8553 -71.1467 72° East 288 331 11,100 -800 Descending Boston Center
Thu 08:27:44 AM 41.8875 -71.0597 64° Northeast 270 311 11,000 -78 Descending Boston Center
Thu 08:28:01 AM 41.9000 -71.0333 58° Northeast 266 306 11,000  Level KA90
Thu 08:29:01 AM 41.9333 -70.9333 66° East 271 312 11,000  Level KA90
Thu 08:30:07 AM 41.9667 -70.8500 62° Northeast 270 311 11,000  Level KA90
Thu 08:30:44 AM 41.9906 -70.8172 46° Northeast 259 298 11,000 -680 Level Boston Center
Thu 08:31:44 AM 42.0414 -70.7208 55° Northeast 259 298 9,900 -1,250 Descending Boston Center
Thu 08:32:44 AM 42.0947 -70.6578 41° Northeast 259 298 8,500 -1,450 Descending Boston Center
Thu 08:33:44 AM 42.1656 -70.6558 North 233 268 7,000 -1,500 Descending Boston Center
Thu 08:34:44 AM 42.2361 -70.6453 North 238 274 5,500 -1,500 Descending Boston Center
Thu 08:35:44 AM 42.3047 -70.6378 North 243 280 4,000 -1,250 Descending Boston Center
Thu 08:36:44 AM 42.3619 -70.6894 326° Northwest 236 272 3,000 -691 Descending Boston Center
Thu 08:38:55 AM 42.3833 -70.8667 279° West 221 254 1,800 -628 Descending KA90
Thu 08:39:55 AM 42.3667 -70.9333 251° West 148 170 1,000 -714 Descending KA90
Thu 08:41:01 AM 42.3667 -70.9667 270° West 110 127 300 -636 Descending KA90
Thu 08:43:00 AM 42.3500 -71.0000 North  Level FlightAware Approximate

Login

Don't have an account? Register now (free) for customized features, flight alerts, and more!